Time;durP1;ratioP1;P1;durP2;ratioP2;P2;SDS_P1;SDS_P2;PMS_P1;PMS_P2;Temp;Humidity;BMP_temperature;BMP_pressure;BME280_temperature;BME280_humidity;BME280_pressure;Samples;Min_cycle;Max_cycle;Signal;HPM_P1;HPM_P2
2023/03/27 00:01:53;;;;;;;6.75;2.28;;;1.70;99.90;;;;;;5093545;28;20047;-81
2023/03/27 00:04:20;;;;;;;7.78;2.50;;;1.60;99.90;;;;;;5093637;28;20499;-81
2023/03/27 00:06:47;;;;;;;7.43;2.03;;;1.60;99.90;;;;;;5092980;28;20040;-80
2023/03/27 00:09:15;;;;;;;9.00;2.33;;;1.60;99.90;;;;;;5092335;28;20093;-80
2023/03/27 00:11:40;;;;;;;5.75;1.98;;;1.50;99.90;;;;;;5093446;28;20525;-80
2023/03/27 00:14:06;;;;;;;7.70;2.08;;;1.50;99.90;;;;;;5093450;28;20035;-80
2023/03/27 00:16:32;;;;;;;17.67;5.13;;;3.20;99.90;;;;;;5094582;28;20051;-80
2023/03/27 00:18:59;;;;;;;7.65;1.92;;;1.40;99.90;;;;;;5097531;28;20052;-80
2023/03/27 00:21:25;;;;;;;4.30;2.05;;;1.40;99.90;;;;;;5097449;28;20048;-81
2023/03/27 00:23:51;;;;;;;4.55;2.10;;;1.40;99.90;;;;;;5097499;28;20055;-80
2023/03/27 00:26:16;;;;;;;8.65;2.40;;;1.30;99.90;;;;;;5097379;28;20040;-80
2023/03/27 00:28:42;;;;;;;7.40;1.88;;;1.30;99.90;;;;;;5097473;28;20066;-80
2023/03/27 00:31:12;;;;;;;4.20;2.13;;;1.30;99.90;;;;;;5097292;28;20036;-80
2023/03/27 00:33:39;;;;;;;6.75;1.90;;;1.20;99.90;;;;;;5097103;28;20118;-80
2023/03/27 00:36:05;;;;;;;10.43;2.00;;;1.20;99.90;;;;;;5097295;28;20044;-81
2023/03/27 00:38:31;;;;;;;5.82;1.83;;;1.20;99.90;;;;;;5096960;28;20036;-80
2023/03/27 00:40:56;;;;;;;7.78;2.25;;;1.10;99.90;;;;;;5097112;28;20044;-81
2023/03/27 00:43:27;;;;;;;7.18;1.80;;;1.20;99.90;;;;;;5095899;28;20471;-80
2023/03/27 00:46:31;;;;;;;5.65;2.00;;;1.10;99.90;;;;;;5096889;28;20492;-81
2023/03/27 00:49:00;;;;;;;7.05;2.67;;;1.10;99.90;;;;;;5092824;28;20438;-80
2023/03/27 00:51:26;;;;;;;8.10;2.28;;;1.10;99.90;;;;;;5095471;28;20052;-80
2023/03/27 00:53:54;;;;;;;6.73;1.90;;;1.10;99.90;;;;;;5095763;28;20040;-80
2023/03/27 00:56:20;;;;;;;6.47;2.45;;;1.00;99.90;;;;;;5096761;28;20048;-80
2023/03/27 00:58:54;;;;;;;10.07;1.80;;;1.10;99.90;;;;;;5096841;28;20163;-81
2023/03/27 01:01:23;;;;;;;7.25;1.95;;;1.00;99.90;;;;;;5095923;28;20052;-80
2023/03/27 01:03:50;;;;;;;9.88;2.85;;;1.00;99.90;;;;;;5096607;28;20134;-80
2023/03/27 01:06:16;;;;;;;7.88;2.15;;;1.00;99.90;;;;;;5096660;28;20387;-80
2023/03/27 01:08:44;;;;;;;9.90;2.30;;;1.90;99.90;;;;;;5096639;28;20044;-80
2023/03/27 01:11:36;;;;;;;8.05;2.08;;;1.00;99.90;;;;;;5096250;28;20487;-80
2023/03/27 01:14:34;;;;;;;7.28;2.05;;;1.00;99.90;;;;;;5095683;28;20044;-81
2023/03/27 01:17:33;;;;;;;8.77;1.75;;;1.00;99.90;;;;;;5078568;28;20056;-81
2023/03/27 01:20:18;;;;;;;8.45;1.88;;;1.10;99.90;;;;;;5095933;28;20040;-80
2023/03/27 01:23:06;;;;;;;14.32;4.20;;;1.10;99.90;;;;;;5096296;28;20047;-81
2023/03/27 01:25:49;;;;;;;5.65;2.00;;;1.10;99.90;;;;;;5096182;28;20051;-81
2023/03/27 01:28:48;;;;;;;7.13;2.72;;;1.00;99.90;;;;;;5078162;28;20495;-81
2023/03/27 01:31:32;;;;;;;;;;;1.00;99.90;;;;;;5096615;28;20392;-80
2023/03/27 01:34:24;;;;;;;3.63;1.83;;;1.00;99.90;;;;;;5094889;28;19920;-80
2023/03/27 01:37:08;;;;;;;6.05;1.90;;;0.90;99.90;;;;;;5096059;28;20052;-81
2023/03/27 01:40:07;;;;;;;6.68;1.90;;;1.00;99.90;;;;;;5095829;28;20055;-80
2023/03/27 01:42:57;;;;;;;8.10;1.98;;;0.90;99.90;;;;;;5095709;28;20385;-80
2023/03/27 01:45:44;;;;;;;6.93;1.73;;;0.90;99.90;;;;;;5095841;28;20055;-79
2023/03/27 01:48:21;;;;;;;3.45;1.63;;;0.90;99.90;;;;;;5094587;28;20036;-81
2023/03/27 01:50:49;;;;;;;6.32;1.70;;;1.00;99.90;;;;;;5094860;28;20056;-80
2023/03/27 01:53:36;;;;;;;7.03;2.08;;;1.00;99.90;;;;;;5095695;28;20078;-80
2023/03/27 01:56:17;;;;;;;9.55;2.55;;;1.00;99.90;;;;;;5094763;28;20052;-80
2023/03/27 01:58:48;;;;;;;7.05;1.85;;;1.00;99.90;;;;;;5095821;28;20115;-80
2023/03/27 02:01:20;;;;;;;4.85;1.90;;;1.00;99.90;;;;;;5094704;28;20048;-80
2023/03/27 02:03:50;;;;;;;9.52;2.00;;;1.00;99.90;;;;;;5095740;28;20036;-80
2023/03/27 02:06:25;;;;;;;5.53;1.52;;;0.90;99.90;;;;;;5094398;28;20055;-79
2023/03/27 02:09:05;;;;;;;7.32;1.70;;;1.00;99.90;;;;;;5094470;28;20039;-80
2023/03/27 02:11:39;;;;;;;8.73;2.13;;;0.90;99.90;;;;;;5095412;28;20502;-80
2023/03/27 02:14:11;;;;;;;17.50;3.78;;;0.90;99.90;;;;;;5095413;28;20040;-79
2023/03/27 02:16:44;;;;;;;7.18;2.13;;;0.90;99.90;;;;;;5095289;28;20052;-80
2023/03/27 02:19:22;;;;;;;5.43;2.42;;;0.70;99.90;;;;;;5094995;28;20044;-80
2023/03/27 02:21:48;;;;;;;3.30;1.58;;;1.00;99.90;;;;;;5093987;28;20052;-79
2023/03/27 02:24:17;;;;;;;4.87;1.50;;;1.00;99.90;;;;;;5094197;28;20090;-80
2023/03/27 02:26:43;;;;;;;8.95;2.88;;;1.00;99.90;;;;;;5095033;28;20282;-79
2023/03/27 02:29:50;;;;;;;10.27;2.10;;;1.00;99.90;;;;;;5093849;28;20044;-80
2023/03/27 02:32:32;;;;;;;8.13;2.28;;;1.00;99.90;;;;;;5084532;28;20642;-80
2023/03/27 02:35:11;;;;;;;7.18;1.95;;;1.10;99.90;;;;;;5095125;28;20044;-80
2023/03/27 02:37:48;;;;;;;3.78;1.60;;;1.10;99.90;;;;;;5094651;28;20491;-80
2023/03/27 02:40:39;;;;;;;13.40;4.03;;;1.10;99.90;;;;;;5093768;28;20040;-80
2023/03/27 02:43:20;;;;;;;9.57;2.40;;;1.00;99.90;;;;;;5094519;28;20131;-81
2023/03/27 02:46:13;;;;;;;6.45;1.90;;;1.00;99.90;;;;;;5094749;28;20105;-81
2023/03/27 02:48:44;;;;;;;5.25;1.83;;;1.00;99.90;;;;;;5094277;28;20047;-79
2023/03/27 02:51:27;;;;;;;6.47;1.90;;;1.00;99.90;;;;;;5094732;28;20392;-81
2023/03/27 02:54:02;;;;;;;5.97;1.95;;;0.90;99.90;;;;;;5093759;28;20036;-80
2023/03/27 02:56:30;;;;;;;6.57;1.80;;;0.90;99.90;;;;;;5093768;28;20486;-80
2023/03/27 02:58:59;;;;;;;8.88;1.80;;;0.90;99.90;;;;;;5094544;28;20101;-81
2023/03/27 03:01:26;;;;;;;8.38;1.85;;;0.90;99.90;;;;;;5093189;28;20044;-80
2023/03/27 03:03:56;;;;;;;8.80;1.73;;;0.90;99.90;;;;;;5093790;28;20044;-79
2023/03/27 03:06:28;;;;;;;6.63;2.00;;;1.50;99.90;;;;;;5094354;28;20115;-80
2023/03/27 03:09:03;;;;;;;3.15;1.63;;;0.90;99.90;;;;;;5093163;28;20048;-81
2023/03/27 03:11:29;;;;;;;4.53;1.70;;;0.80;99.90;;;;;;5093454;28;20090;-81
2023/03/27 03:13:55;;;;;;;5.53;1.83;;;0.80;99.90;;;;;;5094242;28;20094;-81
2023/03/27 03:16:22;;;;;;;5.68;2.08;;;0.80;99.90;;;;;;5093856;28;20051;-81
2023/03/27 03:18:47;;;;;;;6.10;1.70;;;0.80;99.90;;;;;;5094161;28;20072;-80
2023/03/27 03:21:14;;;;;;;3.53;1.60;;;0.90;99.90;;;;;;5092947;28;20152;-81
2023/03/27 03:23:40;;;;;;;5.45;2.00;;;0.90;99.90;;;;;;5092797;28;20403;-81
2023/03/27 03:26:06;;;;;;;5.70;1.85;;;0.90;99.90;;;;;;5092772;28;20051;-81
2023/03/27 03:28:35;;;;;;;8.07;2.40;;;0.90;99.90;;;;;;5093956;28;20044;-79
2023/03/27 03:31:04;;;;;;;11.23;2.45;;;1.00;99.90;;;;;;5093759;28;20050;-80
2023/03/27 03:33:30;;;;;;;9.93;2.45;;;1.00;99.90;;;;;;5094564;28;20040;-80
2023/03/27 03:35:59;;;;;;;4.60;1.92;;;1.10;99.90;;;;;;5093884;28;20113;-80
2023/03/27 03:38:25;;;;;;;5.53;2.00;;;1.10;99.90;;;;;;5093836;28;20162;-79
2023/03/27 03:40:58;;;;;;;6.85;1.92;;;2.40;99.90;;;;;;5093623;28;20506;-80
2023/03/27 03:43:29;;;;;;;7.05;1.70;;;1.20;99.90;;;;;;5092521;28;20529;-79
2023/03/27 03:45:55;;;;;;;7.75;1.90;;;1.30;99.90;;;;;;5092942;28;20052;-81
2023/03/27 03:48:21;;;;;;;14.47;2.87;;;2.20;99.90;;;;;;5092459;28;20134;-80
2023/03/27 03:50:48;;;;;;;4.80;2.05;;;1.40;99.90;;;;;;5093636;28;20366;-81
2023/03/27 03:53:18;;;;;;;8.05;2.00;;;1.50;99.90;;;;;;5093374;28;20504;-81
2023/03/27 03:55:44;;;;;;;8.07;1.80;;;1.40;99.90;;;;;;5093697;28;20044;-82
2023/03/27 03:58:11;;;;;;;5.05;1.80;;;1.50;99.90;;;;;;5093519;28;20055;-82
2023/03/27 04:00:38;;;;;;;6.07;2.72;;;1.40;99.90;;;;;;5092345;28;20423;-80
2023/03/27 04:03:05;;;;;;;;;;;1.30;99.90;;;;;;5094197;28;20457;-79
2023/03/27 04:05:31;;;;;;;8.97;2.63;;;1.30;99.90;;;;;;5093704;28;20260;-79
2023/03/27 04:08:01;;;;;;;6.00;2.08;;;1.30;99.90;;;;;;5092649;28;20495;-80
2023/03/27 04:10:28;;;;;;;3.35;1.75;;;1.20;99.90;;;;;;5093596;28;20048;-79
2023/03/27 04:12:53;;;;;;;4.55;2.08;;;1.20;99.90;;;;;;5092180;28;20122;-80
2023/03/27 04:15:19;;;;;;;11.23;1.90;;;1.20;99.90;;;;;;5093470;28;20174;-80
2023/03/27 04:17:47;;;;;;;7.05;2.05;;;1.10;99.90;;;;;;5093398;28;20045;-80
2023/03/27 04:20:13;;;;;;;5.38;2.03;;;1.10;99.90;;;;;;5093407;28;20114;-82
2023/03/27 04:22:47;;;;;;;8.53;2.50;;;1.10;99.90;;;;;;5092098;28;20048;-80
2023/03/27 04:25:15;;;;;;;3.22;1.63;;;1.00;99.90;;;;;;5092304;28;20130;-81
2023/03/27 04:27:42;;;;;;;5.28;2.13;;;1.10;99.90;;;;;;5092687;28;20054;-80
2023/03/27 04:30:09;;;;;;;7.50;2.17;;;1.90;99.90;;;;;;5093329;28;20044;-82
2023/03/27 04:32:35;;;;;;;;;;;1.00;99.90;;;;;;5092512;28;20101;-80
2023/03/27 04:35:02;;;;;;;4.95;1.60;;;1.00;99.90;;;;;;5093262;28;20010;-81
2023/03/27 04:37:28;;;;;;;5.22;1.67;;;0.90;99.90;;;;;;5075422;28;20403;-81
2023/03/27 04:39:53;;;;;;;5.60;1.70;;;0.90;99.90;;;;;;5093151;28;20048;-81
2023/03/27 04:42:22;;;;;;;5.53;1.90;;;0.90;99.90;;;;;;5093291;28;20047;-80
2023/03/27 04:44:51;;;;;;;4.68;1.67;;;1.20;99.90;;;;;;5093580;28;20036;-81
2023/03/27 04:47:17;;;;;;;3.83;1.70;;;0.80;99.90;;;;;;5093245;28;20399;-80
2023/03/27 04:49:45;;;;;;;2.70;1.55;;;0.80;99.90;;;;;;5091841;28;20060;-80
2023/03/27 04:52:13;;;;;;;3.28;1.90;;;0.80;99.90;;;;;;5093041;28;20047;-81
2023/03/27 04:54:40;;;;;;;5.25;2.00;;;0.80;99.90;;;;;;5091821;28;20040;-82
2023/03/27 04:57:08;;;;;;;4.78;1.70;;;0.80;99.90;;;;;;5092845;28;20047;-81
2023/03/27 04:59:35;;;;;;;5.03;1.73;;;0.80;99.90;;;;;;5092164;28;20051;-80
2023/03/27 05:02:02;;;;;;;3.60;1.70;;;0.80;99.90;;;;;;5093144;28;20044;-81
2023/03/27 05:04:29;;;;;;;10.25;1.90;;;0.90;99.90;;;;;;5093727;28;20496;-81
2023/03/27 05:06:56;;;;;;;4.55;1.75;;;1.00;99.90;;;;;;5078591;28;20130;-81
2023/03/27 05:09:22;;;;;;;4.15;1.80;;;1.00;99.90;;;;;;5096679;28;20098;-81
2023/03/27 05:11:49;;;;;;;6.00;2.22;;;1.00;99.90;;;;;;5096638;28;20093;-82
2023/03/27 05:14:23;;;;;;;5.10;2.03;;;1.00;99.90;;;;;;5096336;28;20040;-82
2023/03/27 05:16:50;;;;;;;8.02;2.20;;;1.10;99.90;;;;;;5095369;28;20395;-81
2023/03/27 05:19:18;;;;;;;4.45;1.85;;;1.10;99.90;;;;;;5095082;28;20134;-80
2023/03/27 05:21:45;;;;;;;5.40;1.60;;;1.20;99.90;;;;;;5095307;28;20044;-82
2023/03/27 05:24:11;;;;;;;10.13;1.80;;;1.20;99.90;;;;;;5095128;28;20365;-81
2023/03/27 05:26:38;;;;;;;4.25;1.80;;;1.30;99.90;;;;;;5095482;28;20395;-80
2023/03/27 05:29:04;;;;;;;7.85;1.90;;;1.30;99.90;;;;;;5096363;28;20483;-81
2023/03/27 05:31:31;;;;;;;10.50;2.05;;;1.30;99.90;;;;;;5095111;28;20098;-80
2023/03/27 05:33:57;;;;;;;5.45;1.75;;;1.30;99.90;;;;;;5096097;28;20083;-81
2023/03/27 05:36:25;;;;;;;7.88;2.05;;;1.30;99.90;;;;;;5078057;28;20083;-81
2023/03/27 05:38:52;;;;;;;8.27;2.00;;;1.30;99.90;;;;;;5096073;28;20093;-80
2023/03/27 05:41:18;;;;;;;5.60;1.90;;;1.30;99.90;;;;;;5096393;28;20052;-80
2023/03/27 05:43:44;;;;;;;4.82;1.83;;;1.30;99.90;;;;;;5096209;28;20044;-80
2023/03/27 05:46:10;;;;;;;9.18;1.95;;;1.30;99.90;;;;;;5096346;28;20040;-80
2023/03/27 05:48:37;;;;;;;3.95;1.77;;;1.30;99.90;;;;;;5095803;28;20052;-81
2023/03/27 05:51:04;;;;;;;3.47;2.10;;;1.20;99.90;;;;;;5095722;28;20048;-80
2023/03/27 05:53:30;;;;;;;4.25;2.10;;;1.20;99.90;;;;;;5095427;28;20557;-81
2023/03/27 05:55:56;;;;;;;6.72;2.25;;;1.30;99.90;;;;;;5095223;28;20044;-81
2023/03/27 05:58:21;;;;;;;5.65;2.20;;;1.20;99.90;;;;;;5077826;28;20059;-80
2023/03/27 06:00:49;;;;;;;3.83;1.95;;;1.20;99.90;;;;;;5095636;28;20539;-82
2023/03/27 06:03:15;;;;;;;7.72;2.28;;;1.20;99.90;;;;;;5095594;28;20070;-80
2023/03/27 06:05:41;;;;;;;8.73;2.10;;;1.20;99.90;;;;;;5095681;28;20036;-81
2023/03/27 06:08:08;;;;;;;11.30;2.47;;;1.20;99.90;;;;;;5094242;28;20055;-80
2023/03/27 06:10:34;;;;;;;5.78;1.98;;;1.30;99.90;;;;;;5094363;28;20044;-82
2023/03/27 06:13:05;;;;;;;5.95;2.60;;;1.90;99.90;;;;;;5095521;28;20040;-81
2023/03/27 06:15:31;;;;;;;8.10;2.25;;;1.30;99.90;;;;;;5095122;28;20040;-82
2023/03/27 06:17:57;;;;;;;8.07;2.10;;;1.40;99.90;;;;;;5095774;28;20047;-80
2023/03/27 06:20:23;;;;;;;11.20;1.92;;;1.40;99.90;;;;;;5095274;28;20063;-81
2023/03/27 06:22:59;;;;;;;4.37;2.00;;;1.50;99.90;;;;;;5094071;28;20044;-80
2023/03/27 06:25:26;;;;;;;5.13;1.95;;;1.40;99.90;;;;;;5095188;28;20051;-79
2023/03/27 06:27:52;;;;;;;7.82;2.40;;;1.50;99.90;;;;;;5093932;28;20044;-83
2023/03/27 06:30:23;;;;;;;10.63;2.30;;;1.50;99.90;;;;;;5094194;28;20051;-80
2023/03/27 06:32:57;;;;;;;7.57;2.15;;;2.40;99.90;;;;;;5094914;28;20044;-80
2023/03/27 06:35:24;;;;;;;5.28;2.00;;;1.60;99.90;;;;;;5095147;28;20148;-80
2023/03/27 06:37:50;;;;;;;6.00;2.33;;;1.70;99.90;;;;;;5094370;28;20062;-80
2023/03/27 06:40:21;;;;;;;9.55;2.72;;;2.30;99.90;;;;;;5094876;28;20402;-80
2023/03/27 06:42:59;;;;;;;7.80;2.03;;;1.90;99.90;;;;;;5094859;28;20127;-78
2023/03/27 06:45:28;;;;;;;7.95;2.20;;;2.00;99.90;;;;;;5094704;28;20050;-80
2023/03/27 06:47:57;;;;;;;6.00;2.00;;;2.30;99.90;;;;;;5094598;28;20613;-81
2023/03/27 06:50:25;;;;;;;5.97;1.83;;;2.50;99.90;;;;;;5094966;28;20384;-84
2023/03/27 06:52:51;;;;;;;4.30;1.75;;;2.50;99.90;;;;;;5094911;28;20381;-80
2023/03/27 06:55:18;;;;;;;5.53;1.38;;;2.40;99.90;;;;;;5094556;28;20046;-80
2023/03/27 06:57:46;;;;;;;2.45;1.33;;;2.50;99.90;;;;;;5094561;28;20132;-79
2023/03/27 07:00:19;;;;;;;4.13;1.67;;;2.60;99.90;;;;;;5093199;28;20048;-77
2023/03/27 07:02:45;;;;;;;5.15;2.50;;;2.70;99.90;;;;;;5093683;28;20048;-76
2023/03/27 07:05:13;;;;;;;7.23;1.80;;;2.80;99.90;;;;;;5094297;28;20040;-79
2023/03/27 07:07:39;;;;;;;4.60;1.40;;;2.90;99.90;;;;;;5094320;28;20032;-79
2023/03/27 07:10:05;;;;;;;5.10;1.52;;;3.00;99.90;;;;;;5094590;28;20122;-79
2023/03/27 07:12:31;;;;;;;2.80;1.35;;;3.10;99.90;;;;;;5094389;28;20044;-79
2023/03/27 07:14:57;;;;;;;4.13;1.60;;;3.20;99.90;;;;;;5094144;28;20464;-80
2023/03/27 07:17:22;;;;;;;5.38;1.60;;;3.30;99.90;;;;;;5094145;28;20079;-80
2023/03/27 07:19:48;;;;;;;4.32;1.80;;;3.40;99.90;;;;;;5094260;28;20134;-77
2023/03/27 07:22:13;;;;;;;5.22;1.60;;;3.50;99.90;;;;;;5094039;28;20040;-78
2023/03/27 07:24:40;;;;;;;2.67;1.45;;;3.60;99.90;;;;;;5094011;28;20089;-78
2023/03/27 07:27:06;;;;;;;7.72;1.60;;;3.70;99.90;;;;;;5093466;28;20048;-78
2023/03/27 07:29:32;;;;;;;2.30;1.50;;;3.80;99.90;;;;;;5076188;28;20040;-79
2023/03/27 07:31:58;;;;;;;5.07;2.15;;;3.80;99.90;;;;;;5094446;28;20075;-78
2023/03/27 07:34:24;;;;;;;7.03;1.50;;;3.90;99.90;;;;;;5093769;28;20132;-78
2023/03/27 07:36:49;;;;;;;2.83;1.70;;;3.90;99.90;;;;;;5093306;28;20048;-82
2023/03/27 07:39:15;;;;;;;4.75;1.60;;;4.00;99.90;;;;;;5093677;28;20047;-80
2023/03/27 07:41:41;;;;;;;3.33;1.30;;;4.00;99.90;;;;;;5093688;28;20050;-77
2023/03/27 07:44:07;;;;;;;2.97;1.30;;;5.00;99.90;;;;;;5093768;28;20127;-78
2023/03/27 07:46:32;;;;;;;6.07;1.65;;;4.20;99.90;;;;;;5092986;28;20126;-79
2023/03/27 07:48:58;;;;;;;5.28;1.67;;;4.20;99.90;;;;;;5092643;28;20047;-79
2023/03/27 07:51:24;;;;;;;3.28;1.45;;;4.30;99.90;;;;;;5093476;28;20074;-78
2023/03/27 07:53:54;;;;;;;4.10;1.50;;;4.40;99.90;;;;;;5093388;28;20063;-77
2023/03/27 07:56:22;;;;;;;4.00;1.48;;;4.50;99.90;;;;;;5093560;28;20048;-78
2023/03/27 07:58:48;;;;;;;6.22;1.70;;;4.50;99.90;;;;;;5092127;28;20044;-77
2023/03/27 08:01:13;;;;;;;3.03;1.33;;;4.60;99.90;;;;;;5093248;28;20508;-78
2023/03/27 08:03:40;;;;;;;5.20;1.80;;;4.60;99.90;;;;;;5093418;28;20090;-78
2023/03/27 08:06:06;;;;;;;6.85;1.88;;;4.70;99.90;;;;;;5093452;28;20040;-79
2023/03/27 08:08:32;;;;;;;4.30;1.60;;;4.80;99.90;;;;;;5093057;28;20487;-80
2023/03/27 08:11:01;;;;;;;7.53;1.60;;;4.80;99.90;;;;;;5093171;28;20131;-80
2023/03/27 08:13:27;;;;;;;6.72;1.85;;;4.90;99.90;;;;;;5092035;28;20108;-78
2023/03/27 08:16:07;;;;;;;4.90;1.80;;;5.00;99.90;;;;;;5093130;28;20056;-80
2023/03/27 08:18:33;;;;;;;6.18;1.50;;;5.10;99.90;;;;;;5093312;28;20453;-80
2023/03/27 08:21:01;;;;;;;9.73;1.52;;;5.20;99.90;;;;;;5093209;28;20123;-81
2023/03/27 08:23:29;;;;;;;5.03;1.70;;;5.30;99.90;;;;;;5093305;28;20126;-77
2023/03/27 08:25:59;;;;;;;5.22;1.80;;;5.40;99.90;;;;;;5092813;28;20541;-77
2023/03/27 08:28:34;;;;;;;7.85;1.92;;;5.60;99.90;;;;;;5093090;28;20080;-77
2023/03/27 08:31:02;;;;;;;8.02;1.83;;;5.70;99.90;;;;;;5092919;28;20100;-78
2023/03/27 08:33:28;;;;;;;10.63;2.45;;;5.80;99.90;;;;;;5093331;28;20404;-79
2023/03/27 08:35:57;;;;;;;6.85;1.60;;;6.00;99.90;;;;;;5093106;28;20040;-77
2023/03/27 08:38:23;;;;;;;7.38;1.70;;;6.10;99.90;;;;;;5093417;28;20051;-77
2023/03/27 08:40:57;;;;;;;4.75;1.23;;;6.10;99.90;;;;;;5096906;28;20040;-79
2023/03/27 08:43:35;;;;;;;4.38;1.23;;;5.80;99.90;;;;;;5096094;28;20483;-86
2023/03/27 08:46:07;;;;;;;3.95;1.50;;;5.30;99.90;;;;;;5096806;28;20040;-79
2023/03/27 08:48:47;;;;;;;2.00;1.42;;;4.70;99.90;;;;;;5096717;28;20502;-79
2023/03/27 08:51:58;;;;;;;3.88;1.58;;;4.50;99.90;;;;;;5097240;28;20377;-79
2023/03/27 08:54:28;;;;;;;3.35;1.42;;;4.00;99.90;;;;;;5093602;28;20056;-78
2023/03/27 08:56:54;;;;;;;4.68;2.15;;;4.00;99.90;;;;;;5096847;28;20388;-81
2023/03/27 08:59:29;;;;;;;3.72;1.20;;;4.10;99.90;;;;;;5095522;28;20043;-80
2023/03/27 09:02:19;;;;;;;3.55;1.60;;;4.10;99.90;;;;;;5096630;28;20047;-79
2023/03/27 09:05:03;;;;;;;2.25;1.50;;;4.20;99.90;;;;;;5095400;28;20059;-78
2023/03/27 09:07:55;;;;;;;2.33;1.52;;;4.30;99.90;;;;;;5096361;28;20051;-79
2023/03/27 09:10:47;;;;;;;4.28;1.60;;;5.40;99.90;;;;;;5097129;28;20404;-79
2023/03/27 09:13:28;;;;;;;5.63;1.63;;;4.70;99.90;;;;;;5087849;28;20098;-79
2023/03/27 09:16:17;;;;;;;3.90;1.50;;;4.80;99.90;;;;;;5096406;28;20047;-80
2023/03/27 09:18:49;;;;;;;3.95;1.30;;;5.10;99.90;;;;;;5096361;28;20123;-79
2023/03/27 09:21:33;;;;;;;1.42;1.10;;;5.20;99.90;;;;;;5096208;28;20063;-81
2023/03/27 09:24:05;;;;;;;3.97;1.40;;;5.40;99.90;;;;;;5096189;28;20093;-79
2023/03/27 09:26:35;;;;;;;1.88;1.30;;;5.50;99.90;;;;;;5096126;28;20040;-79
2023/03/27 09:29:24;;;;;;;2.20;1.58;;;5.70;99.90;;;;;;5095570;28;20079;-78
2023/03/27 09:31:55;;;;;;;5.78;2.15;;;5.80;99.90;;;;;;5096315;28;20040;-80
2023/03/27 09:34:27;;;;;;;5.65;1.40;;;5.90;99.90;;;;;;5094864;28;20036;-79
2023/03/27 09:36:54;;;;;;;3.60;1.15;;;6.20;99.90;;;;;;5095737;28;20484;-79
2023/03/27 09:39:28;;;;;;;3.25;1.25;;;6.10;99.90;;;;;;5095899;28;20036;-78
2023/03/27 09:41:57;;;;;;;5.75;1.75;;;7.20;99.90;;;;;;5094926;28;20514;-84
2023/03/27 09:44:26;;;;;;;5.70;1.40;;;6.40;99.90;;;;;;5096229;28;20048;-85
2023/03/27 09:47:10;;;;;;;5.05;1.50;;;6.60;99.90;;;;;;5078599;28;20135;-80
2023/03/27 09:49:39;;;;;;;4.20;1.30;;;6.60;99.90;;;;;;5095089;28;20064;-80
2023/03/27 09:52:06;;;;;;;5.60;1.30;;;6.70;99.90;;;;;;5095005;28;20095;-79
2023/03/27 09:54:49;;;;;;;;;;;7.50;99.90;;;;;;5095833;28;20451;-78
2023/03/27 09:57:14;;;;;;;2.60;0.90;;;6.50;99.90;;;;;;5095617;28;19920;-80
2023/03/27 09:59:58;;;;;;;5.70;1.20;;;6.30;99.90;;;;;;5077756;28;20441;-79
2023/03/27 10:02:29;;;;;;;2.35;1.00;;;6.30;99.90;;;;;;5095543;28;20048;-80
2023/03/27 10:05:16;;;;;;;1.48;0.93;;;6.40;99.90;;;;;;5094843;28;20484;-80
2023/03/27 10:07:43;;;;;;;2.93;0.97;;;6.40;99.90;;;;;;5095827;28;20062;-80
2023/03/27 10:10:16;;;;;;;1.80;0.90;;;6.40;99.90;;;;;;5094326;28;20342;-81
2023/03/27 10:12:44;;;;;;;3.78;1.10;;;6.50;99.90;;;;;;5095310;28;20047;-81
2023/03/27 10:15:39;;;;;;;2.10;1.15;;;6.50;99.90;;;;;;5095643;28;20087;-79
2023/03/27 10:18:29;;;;;;;4.03;1.10;;;6.50;99.90;;;;;;5077019;28;20059;-80
2023/03/27 10:21:00;;;;;;;3.15;1.23;;;6.60;99.90;;;;;;5095220;28;20127;-80
2023/03/27 10:23:41;;;;;;;5.60;1.40;;;7.20;99.90;;;;;;5095232;28;20074;-81
2023/03/27 10:26:10;;;;;;;4.18;1.27;;;6.60;99.90;;;;;;5094940;28;20043;-80
2023/03/27 10:28:39;;;;;;;5.80;1.27;;;6.90;99.90;;;;;;5095435;28;20048;-80
2023/03/27 10:31:22;;;;;;;4.18;1.40;;;7.10;99.90;;;;;;5095229;28;20059;-80
2023/03/27 10:33:48;;;;;;;2.55;1.42;;;7.40;99.90;;;;;;5094482;28;20047;-79
2023/03/27 10:36:14;;;;;;;2.42;1.20;;;7.30;99.90;;;;;;5094940;28;20396;-81
2023/03/27 10:38:41;;;;;;;3.28;1.33;;;7.60;99.90;;;;;;5110760;28;20051;-80
2023/03/27 10:41:16;;;;;;;;;;;7.70;99.90;;;;;;5094670;28;20048;-79
2023/03/27 10:43:44;;;;;;;1.38;0.93;;;7.80;99.90;;;;;;5094356;28;19920;-80
2023/03/27 10:46:14;;;;;;;2.17;1.10;;;7.90;99.90;;;;;;5093476;28;20051;-80
2023/03/27 10:48:49;;;;;;;4.78;1.10;;;7.70;99.90;;;;;;5094749;28;20522;-86
2023/03/27 10:51:23;;;;;;;4.47;1.17;;;7.60;99.90;;;;;;5095004;28;20489;-79
2023/03/27 10:53:55;;;;;;;3.80;1.33;;;7.60;99.90;;;;;;5094607;28;20040;-79
2023/03/27 10:56:42;;;;;;;2.47;1.10;;;7.20;99.90;;;;;;5094374;28;20036;-78
2023/03/27 10:59:16;;;;;;;2.70;1.20;;;7.10;99.90;;;;;;5093471;28;20486;-82
2023/03/27 11:01:50;;;;;;;2.22;1.30;;;7.30;99.90;;;;;;5093673;28;20487;-81
2023/03/27 11:04:24;;;;;;;4.85;1.65;;;7.20;99.90;;;;;;5093506;28;20052;-78
2023/03/27 11:06:56;;;;;;;4.97;1.30;;;7.20;99.90;;;;;;5094114;28;20055;-78
2023/03/27 11:09:28;;;;;;;4.93;1.98;;;7.00;99.90;;;;;;5094334;28;20047;-79
2023/03/27 11:12:09;;;;;;;7.43;2.88;;;7.70;99.90;;;;;;5076532;28;20434;-81
2023/03/27 11:14:44;;;;;;;5.28;1.38;;;7.20;99.90;;;;;;5094249;28;20036;-79
2023/03/27 11:17:13;;;;;;;4.05;1.65;;;7.40;99.90;;;;;;5094449;28;20044;-81
2023/03/27 11:19:51;;;;;;;3.90;1.40;;;7.60;99.90;;;;;;5094259;28;20087;-77
2023/03/27 11:22:58;;;;;;;4.68;1.63;;;7.80;99.90;;;;;;5094676;28;20036;-77
2023/03/27 11:25:38;;;;;;;4.78;1.67;;;8.20;99.90;;;;;;5031367;28;20148;-79
2023/03/27 11:28:21;;;;;;;2.03;1.23;;;8.40;99.90;;;;;;5089286;28;20056;-80
2023/03/27 11:30:55;;;;;;;2.22;1.08;;;8.50;99.90;;;;;;5094376;28;20048;-75
2023/03/27 11:33:28;;;;;;;2.38;1.20;;;8.30;99.90;;;;;;5094106;28;20058;-77
2023/03/27 11:36:12;;;;;;;3.80;1.15;;;8.10;99.90;;;;;;5093923;28;20047;-79
2023/03/27 11:38:45;;;;;;;1.95;0.93;;;8.10;99.90;;;;;;5091862;28;20051;-82
2023/03/27 11:41:12;;;;;;;2.33;0.98;;;8.10;99.90;;;;;;5093960;28;20132;-77
2023/03/27 11:43:39;;;;;;;3.13;1.15;;;8.10;99.90;;;;;;5093964;28;20051;-80
2023/03/27 11:46:42;;;;;;;3.05;0.90;;;8.20;99.90;;;;;;5094056;28;20082;-77
2023/03/27 11:49:20;;;;;;;4.65;0.98;;;8.20;99.90;;;;;;5093561;28;20108;-78
2023/03/27 11:51:45;;;;;;;;;;;8.30;99.90;;;;;;5094326;28;20052;-77
2023/03/27 11:54:36;;;;;;;3.58;1.20;;;8.40;99.90;;;;;;5093598;28;19972;-77
2023/03/27 11:57:08;;;;;;;1.98;1.10;;;8.70;99.90;;;;;;5093435;28;20040;-75
2023/03/27 11:59:40;;;;;;;2.25;1.00;;;8.90;99.90;;;;;;5093383;28;20044;-79
2023/03/27 12:02:33;;;;;;;4.90;1.42;;;8.90;99.90;;;;;;5093484;28;20411;-80
2023/03/27 12:05:30;;;;;;;5.30;1.10;;;9.10;99.90;;;;;;5093065;28;20478;-78
2023/03/27 12:08:23;;;;;;;8.48;1.80;;;9.20;99.90;;;;;;5079749;28;20048;-76
2023/03/27 12:10:51;;;;;;;3.63;1.23;;;9.20;99.90;;;;;;5093171;28;20047;-77
2023/03/27 12:13:43;;;;;;;3.67;1.58;;;9.20;99.90;;;;;;5095694;28;20131;-77
2023/03/27 12:16:46;;;;;;;4.65;1.75;;;9.20;99.90;;;;;;5097456;28;20040;-77
2023/03/27 12:19:40;;;;;;;5.20;1.45;;;8.70;99.90;;;;;;5097350;28;20090;-79
2023/03/27 12:22:15;;;;;;;4.32;1.17;;;8.50;99.90;;;;;;5096832;28;20055;-78
2023/03/27 12:25:14;;;;;;;3.28;1.00;;;8.60;99.90;;;;;;5097230;28;20123;-79
2023/03/27 12:27:52;;;;;;;4.85;1.20;;;8.80;99.90;;;;;;5097078;28;20056;-78
2023/03/27 12:30:45;;;;;;;3.20;1.00;;;9.00;99.90;;;;;;5097077;28;20056;-77
2023/03/27 12:33:13;;;;;;;4.22;1.00;;;9.10;99.90;;;;;;5095676;28;20407;-77
2023/03/27 12:35:43;;;;;;;3.78;1.10;;;8.60;99.90;;;;;;5096817;28;20384;-79
2023/03/27 12:38:37;;;;;;;1.63;1.00;;;8.80;99.90;;;;;;5094712;28;20095;-77
2023/03/27 12:41:09;;;;;;;4.22;1.00;;;7.60;99.90;;;;;;5075341;28;20504;-78
2023/03/27 12:43:39;;;;;;;8.05;1.42;;;7.20;99.90;;;;;;5077266;28;20052;-78
2023/03/27 12:46:10;;;;;;;5.32;1.50;;;7.00;99.90;;;;;;5076015;28;20123;-77
2023/03/27 12:48:56;;;;;;;6.32;1.35;;;6.70;99.90;;;;;;5076601;28;20107;-78
2023/03/27 12:51:43;;;;;;;3.30;1.20;;;6.60;99.90;;;;;;5076466;28;20049;-77
2023/03/27 12:54:30;;;;;;;3.70;1.38;;;6.50;99.90;;;;;;5075496;28;20033;-78
2023/03/27 12:57:06;;;;;;;4.80;1.30;;;6.70;99.90;;;;;;5076060;28;20117;-79
2023/03/27 12:59:36;;;;;;;2.92;2.03;;;7.00;99.90;;;;;;5075986;28;20404;-80
2023/03/27 13:02:07;;;;;;;4.13;1.30;;;7.20;99.90;;;;;;5076981;28;20056;-80
2023/03/27 13:05:00;;;;;;;2.90;1.10;;;7.50;99.90;;;;;;5076922;28;20048;-80
2023/03/27 13:07:49;;;;;;;3.40;1.20;;;7.90;99.90;;;;;;5076155;28;20040;-78
2023/03/27 13:10:27;;;;;;;4.18;1.30;;;8.20;99.90;;;;;;5076406;28;20048;-80
2023/03/27 13:13:17;;;;;;;5.30;1.30;;;8.50;99.90;;;;;;5076869;28;20396;-76
2023/03/27 13:16:04;;;;;;;5.03;1.45;;;8.80;99.90;;;;;;5076245;28;20048;-78
2023/03/27 13:18:48;;;;;;;4.82;1.30;;;8.90;99.90;;;;;;5076184;28;20049;-76
2023/03/27 13:21:20;;;;;;;4.00;1.33;;;9.10;99.90;;;;;;5076566;28;20037;-78
2023/03/27 13:23:55;;;;;;;1.98;1.13;;;9.30;99.90;;;;;;5075588;28;20063;-76
2023/03/27 13:26:45;;;;;;;6.43;1.40;;;9.50;99.90;;;;;;5076127;28;20040;-78
2023/03/27 13:29:18;;;;;;;4.13;1.33;;;9.30;99.90;;;;;;5076486;28;20041;-75